Time;durP1;ratioP1;P1;durP2;ratioP2;P2;SDS_P1;SDS_P2;PMS_P1;PMS_P2;Temp;Humidity;BMP_temperature;BMP_pressure;BME280_temperature;BME280_humidity;BME280_pressure;Samples;Min_cycle;Max_cycle;Signal;HPM_P1;HPM_P2
2023/10/04 00:00:40;;;;;;;;;;;14.90;97.90;;;;;;5109562;28;19915;-70
2023/10/04 00:03:05;;;;;;;;;;;14.80;97.80;;;;;;5094196;28;20514;-70
2023/10/04 00:05:31;;;;;;;;;;;14.80;98.00;;;;;;5100709;28;19907;-70
2023/10/04 00:07:56;;;;;;;;;;;14.80;97.80;;;;;;5095295;28;20007;-70
2023/10/04 00:10:23;;;;;;;;;;;14.90;98.00;;;;;;5086529;28;19917;-70
2023/10/04 00:12:49;;;;;;;;;;;14.80;97.70;;;;;;5090387;28;19987;-70
2023/10/04 00:15:14;;;;;;;;;;;14.80;97.90;;;;;;5089704;28;19996;-70
2023/10/04 00:17:42;;;;;;;;;;;14.80;98.00;;;;;;5094836;28;19915;-70
2023/10/04 00:20:13;;;;;;;;;;;14.80;97.90;;;;;;5093583;28;19915;-70
2023/10/04 00:22:39;;;;;;;;;;;14.80;97.80;;;;;;5094619;28;19919;-70
2023/10/04 00:25:08;;;;;;;;;;;14.80;98.00;;;;;;5090042;28;19908;-70
2023/10/04 00:27:33;;;;;;;;;;;14.80;97.90;;;;;;5097296;28;20672;-70
2023/10/04 00:29:59;;;;;;;;;;;14.80;97.80;;;;;;5098243;28;19919;-70
2023/10/04 00:32:26;;;;;;;;;;;14.80;97.90;;;;;;5089431;28;19932;-70
2023/10/04 00:34:52;;;;;;;;;;;14.70;97.80;;;;;;5089602;28;19912;-70
2023/10/04 00:37:18;;;;;;;;;;;14.80;97.90;;;;;;5090946;28;19912;-70
2023/10/04 00:39:43;;;;;;;;;;;14.70;97.80;;;;;;5110210;28;20002;-70
2023/10/04 00:42:09;;;;;;;;;;;14.70;97.70;;;;;;5109480;28;19907;-70
2023/10/04 00:44:35;;;;;;;;;;;14.70;97.90;;;;;;5088283;28;19908;-70
2023/10/04 00:47:05;;;;;;;;;;;14.70;97.80;;;;;;5095221;28;19916;-70
2023/10/04 00:49:32;;;;;;;;;;;14.70;97.90;;;;;;5108672;27;19911;-70
2023/10/04 00:51:59;;;;;;;;;;;14.70;97.90;;;;;;5101585;28;19912;-70
2023/10/04 00:54:26;;;;;;;;;;;14.70;97.80;;;;;;5091161;28;20387;-70
2023/10/04 00:56:51;;;;;;;;;;;14.70;97.70;;;;;;5101652;28;19912;-70
2023/10/04 00:59:17;;;;;;;;;;;14.60;97.80;;;;;;5092650;28;20590;-70
2023/10/04 01:01:43;;;;;;;;;;;14.60;97.90;;;;;;5109890;28;19934;-70
2023/10/04 01:04:10;;;;;;;;;;;14.60;97.80;;;;;;5100846;28;19912;-70
2023/10/04 01:06:37;;;;;;;;;;;14.60;97.80;;;;;;5093818;28;20435;-70
2023/10/04 01:09:05;;;;;;;;;;;14.60;97.90;;;;;;5108523;28;19916;-70
2023/10/04 01:11:37;;;;;;;;;;;14.60;97.80;;;;;;5094116;28;20012;-70
2023/10/04 01:14:15;;;;;;;;;;;14.70;97.90;;;;;;5088902;28;19912;-70
2023/10/04 01:16:41;;;;;;;;;;;14.60;97.80;;;;;;5082412;28;19954;-70
2023/10/04 01:19:07;;;;;;;;;;;14.60;97.70;;;;;;5104425;28;19912;-70
2023/10/04 01:21:33;;;;;;;;;;;14.60;97.90;;;;;;5106322;28;19958;-70
2023/10/04 01:23:59;;;;;;;;;;;14.60;97.80;;;;;;5089065;28;19912;-70
2023/10/04 01:26:25;;;;;;;;;;;14.60;97.80;;;;;;5105530;28;19946;-70
2023/10/04 01:28:55;;;;;;;;;;;14.60;97.70;;;;;;5094984;28;20483;-70
2023/10/04 01:31:21;;;;;;;;;;;14.60;97.80;;;;;;5090581;28;19912;-70
2023/10/04 01:33:47;;;;;;;;;;;14.60;97.90;;;;;;5087782;28;19908;-70
2023/10/04 01:36:13;;;;;;;;;;;14.60;97.80;;;;;;5088893;28;19912;-70
2023/10/04 01:38:38;;;;;;;;;;;14.50;97.70;;;;;;5091707;28;19964;-70
2023/10/04 01:41:04;;;;;;;;;;;14.50;97.80;;;;;;5100836;28;20348;-70
2023/10/04 01:43:30;;;;;;;;;;;14.50;97.80;;;;;;5088840;28;20360;-70
2023/10/04 01:45:59;;;;;;;;;;;14.50;97.60;;;;;;5088687;28;20299;-70
2023/10/04 01:48:26;;;;;;;;;;;14.50;97.80;;;;;;5138872;27;19934;-70
2023/10/04 01:50:53;;;;;;;;;;;14.50;97.70;;;;;;5093372;28;19923;-70
2023/10/04 01:53:25;;;;;;;;;;;14.50;97.80;;;;;;5087392;28;19919;-70
2023/10/04 01:55:51;;;;;;;;;;;14.50;97.70;;;;;;5087214;28;19908;-70
2023/10/04 01:58:18;;;;;;;;;;;14.50;97.80;;;;;;5097056;28;19914;-70
2023/10/04 02:00:44;;;;;;;;;;;14.50;97.80;;;;;;5097284;28;20483;-70
2023/10/04 02:03:10;;;;;;;;;;;14.50;97.80;;;;;;5100491;28;19908;-70
2023/10/04 02:05:40;;;;;;;;;;;14.50;97.70;;;;;;5088568;28;19996;-70
2023/10/04 02:08:07;;;;;;;;;;;14.50;97.70;;;;;;5105415;28;19920;-70
2023/10/04 02:10:33;;;;;;;;;;;14.50;97.80;;;;;;5100984;28;19965;-70
2023/10/04 02:12:58;;;;;;;;;;;14.50;97.70;;;;;;5093108;28;19908;-70
2023/10/04 02:15:24;;;;;;;;;;;14.50;97.80;;;;;;5092643;28;20590;-70
2023/10/04 02:17:50;;;;;;;;;;;14.50;97.80;;;;;;5097687;28;19912;-70
2023/10/04 02:20:23;;;;;;;;;;;14.50;97.80;;;;;;5102924;28;19918;-70
2023/10/04 02:22:55;;;;;;;;;;;14.50;97.70;;;;;;5106642;28;20333;-70
2023/10/04 02:25:22;;;;;;;;;;;14.50;97.80;;;;;;5100980;28;20335;-70
2023/10/04 02:27:51;;;;;;;;;;;14.50;97.70;;;;;;5095263;28;19912;-70
2023/10/04 02:30:26;;;;;;;;;;;14.50;97.60;;;;;;5092080;28;19915;-70
2023/10/04 02:32:52;;;;;;;;;;;14.50;97.80;;;;;;5092534;28;19912;-70
2023/10/04 02:35:25;;;;;;;;;;;14.50;97.80;;;;;;5091464;28;20347;-70
2023/10/04 02:37:54;;;;;;;;;;;14.50;97.80;;;;;;5100710;28;19948;-70
2023/10/04 02:40:22;;;;;;;;;;;14.50;97.70;;;;;;5108962;28;19926;-70
2023/10/04 02:42:48;;;;;;;;;;;14.50;97.70;;;;;;5112090;28;20629;-70
2023/10/04 02:45:18;;;;;;;;;;;14.50;97.70;;;;;;5111185;28;19922;-70
2023/10/04 02:47:48;;;;;;;;;;;14.50;97.80;;;;;;5111477;28;19916;-70
2023/10/04 02:50:15;;;;;;;;;;;14.50;97.70;;;;;;5093244;28;19914;-70
2023/10/04 02:52:40;;;;;;;;;;;14.50;97.80;;;;;;5090587;28;19943;-70
2023/10/04 02:55:06;;;;;;;;;;;14.50;97.70;;;;;;5092501;28;20009;-70
2023/10/04 02:57:32;;;;;;;;;;;14.50;97.70;;;;;;5103018;28;19915;-70
2023/10/04 02:59:58;;;;;;;;;;;14.50;97.60;;;;;;5096803;28;19912;-70
2023/10/04 03:02:24;;;;;;;;;;;14.50;97.50;;;;;;5091175;28;19919;-70
2023/10/04 03:04:52;;;;;;;;;;;14.50;97.70;;;;;;5095490;28;20352;-70
2023/10/04 03:07:19;;;;;;;;;;;14.40;97.60;;;;;;5101742;28;19985;-70
2023/10/04 03:09:45;;;;;;;;;;;14.40;97.70;;;;;;5091007;28;19938;-70
2023/10/04 03:12:10;;;;;;;;;;;14.50;97.70;;;;;;5087680;28;19909;-70
2023/10/04 03:14:36;;;;;;;;;;;14.50;97.70;;;;;;5089583;28;19961;-70
2023/10/04 03:17:02;;;;;;;;;;;14.50;97.60;;;;;;5090271;28;19916;-70
2023/10/04 03:19:28;;;;;;;;;;;14.50;97.70;;;;;;5098073;28;19943;-70
2023/10/04 03:21:53;;;;;;;;;;;14.50;97.70;;;;;;5096972;28;20299;-71
2023/10/04 03:24:19;;;;;;;;;;;14.50;97.60;;;;;;5110512;28;19908;-71
2023/10/04 03:26:45;;;;;;;;;;;14.50;97.60;;;;;;5110757;28;20006;-71
2023/10/04 03:29:15;;;;;;;;;;;14.50;97.70;;;;;;5110341;28;19912;-71
2023/10/04 03:31:42;;;;;;;;;;;14.50;97.70;;;;;;5103250;28;19908;-71
2023/10/04 03:34:09;;;;;;;;;;;14.50;97.70;;;;;;5094112;28;19976;-71
2023/10/04 03:36:39;;;;;;;;;;;14.50;97.70;;;;;;5090629;28;19915;-71
2023/10/04 03:39:04;;;;;;;;;;;14.50;97.60;;;;;;5096941;28;19916;-71
2023/10/04 03:41:30;;;;;;;;;;;14.50;97.70;;;;;;5107775;27;19950;-71
2023/10/04 03:43:55;;;;;;;;;;;14.50;97.70;;;;;;5095344;28;19908;-71
2023/10/04 03:46:21;;;;;;;;;;;14.50;97.60;;;;;;5102346;28;20426;-71
2023/10/04 03:48:47;;;;;;;;;;;14.50;97.70;;;;;;5106127;28;19908;-71
2023/10/04 03:51:13;;;;;;;;;;;14.50;97.70;;;;;;5090593;28;19980;-71
2023/10/04 03:53:41;;;;;;;;;;;14.50;97.70;;;;;;5090610;28;19949;-71
2023/10/04 03:56:10;;;;;;;;;;;14.50;97.70;;;;;;5088979;28;19920;-71
2023/10/04 03:58:36;;;;;;;;;;;14.50;97.60;;;;;;5090186;28;19912;-71
2023/10/04 04:01:02;;;;;;;;;;;14.50;97.70;;;;;;5098630;28;20443;-71
2023/10/04 04:03:28;;;;;;;;;;;14.50;97.70;;;;;;5092245;28;20030;-71
2023/10/04 04:05:54;;;;;;;;;;;14.50;97.60;;;;;;5095918;27;19912;-71
2023/10/04 04:08:20;;;;;;;;;;;14.50;97.60;;;;;;5099336;28;20024;-71
2023/10/04 04:10:46;;;;;;;;;;;14.50;97.70;;;;;;5105006;28;19981;-71
2023/10/04 04:13:12;;;;;;;;;;;14.50;97.90;;;;;;5092888;28;19912;-71
2023/10/04 04:15:39;;;;;;;;;;;14.50;97.70;;;;;;5097730;28;20528;-71
2023/10/04 04:18:10;;;;;;;;;;;14.40;97.70;;;;;;5096977;28;19955;-70
2023/10/04 04:20:35;;;;;;;;;;;14.40;97.70;;;;;;5100096;28;19907;-70
2023/10/04 04:23:03;;;;;;;;;;;14.40;97.70;;;;;;5101895;28;19918;-70
2023/10/04 04:25:29;;;;;;;;;;;14.50;97.70;;;;;;5108806;28;19907;-70
2023/10/04 04:27:56;;;;;;;;;;;14.40;97.60;;;;;;5098710;28;19919;-70
2023/10/04 04:30:23;;;;;;;;;;;14.40;97.70;;;;;;5090846;28;19995;-70
2023/10/04 04:32:52;;;;;;;;;;;14.50;97.70;;;;;;5105105;28;19965;-70
2023/10/04 04:35:23;;;;;;;;;;;14.40;97.70;;;;;;5089683;28;19915;-70
2023/10/04 04:37:54;;;;;;;;;;;14.40;97.70;;;;;;5088342;28;19912;-70
2023/10/04 04:40:24;;;;;;;;;;;14.40;97.70;;;;;;5089082;28;19915;-70
2023/10/04 04:42:50;;;;;;;;;;;14.40;97.70;;;;;;5104630;28;20273;-70
2023/10/04 04:45:16;;;;;;;;;;;14.40;97.60;;;;;;5098177;28;19911;-70
2023/10/04 04:47:44;;;;;;;;;;;14.40;97.70;;;;;;5099211;28;19947;-70
2023/10/04 04:50:10;;;;;;;;;;;14.40;97.70;;;;;;5109870;28;20006;-70
2023/10/04 04:52:36;;;;;;;;;;;14.40;97.70;;;;;;5097581;28;20031;-70
2023/10/04 04:55:02;;;;;;;;;;;14.40;97.70;;;;;;5089116;28;19919;-70
2023/10/04 04:57:29;;;;;;;;;;;14.40;97.70;;;;;;5096472;28;19920;-70
2023/10/04 04:59:56;;;;;;;;;;;14.40;97.70;;;;;;5113673;27;19908;-70
2023/10/04 05:02:25;;;;;;;;;;;14.40;97.70;;;;;;5097494;28;19911;-70
2023/10/04 05:04:51;;;;;;;;;;;14.40;97.70;;;;;;5096674;28;19909;-70
2023/10/04 05:07:17;;;;;;;;;;;14.40;97.70;;;;;;5097879;28;19935;-70
2023/10/04 05:09:43;;;;;;;;;;;14.30;97.70;;;;;;5096686;28;19951;-70
2023/10/04 05:12:08;;;;;;;;;;;14.30;97.70;;;;;;5085277;28;19934;-70
2023/10/04 05:14:35;;;;;;;;;;;14.30;97.70;;;;;;5088488;28;19918;-70
2023/10/04 05:17:01;;;;;;;;;;;14.30;98.10;;;;;;5089068;28;19915;-70
2023/10/04 05:19:26;;;;;;;;;;;14.30;97.70;;;;;;5097191;28;19916;-70
2023/10/04 05:21:52;;;;;;;;;;;14.30;97.70;;;;;;5094606;28;19916;-70
2023/10/04 05:24:17;;;;;;;;;;;14.30;97.80;;;;;;5106848;28;20010;-70
2023/10/04 05:26:43;;;;;;;;;;;14.30;97.70;;;;;;5088968;28;20387;-70
2023/10/04 05:29:08;;;;;;;;;;;14.30;97.80;;;;;;5105313;28;19965;-70
2023/10/04 05:31:34;;;;;;;;;;;14.30;97.80;;;;;;5100605;28;19964;-70
2023/10/04 05:33:59;;;;;;;;;;;14.30;97.70;;;;;;5094089;28;19908;-70
2023/10/04 05:36:25;;;;;;;;;;;14.20;97.70;;;;;;5089468;28;19912;-70
2023/10/04 05:38:51;;;;;;;;;;;14.30;97.80;;;;;;5093080;28;20005;-70
2023/10/04 05:41:16;;;;;;;;;;;14.20;97.80;;;;;;5093247;28;19908;-70
2023/10/04 05:43:43;;;;;;;;;;;14.20;97.80;;;;;;5101256;28;20002;-70
2023/10/04 05:46:10;;;;;;;;;;;14.20;97.80;;;;;;5092876;28;19912;-70
2023/10/04 05:48:35;;;;;;;;;;;14.10;97.70;;;;;;5092341;28;20277;-70
2023/10/04 05:51:01;;;;;;;;;;;14.20;97.80;;;;;;5095768;28;19908;-70
2023/10/04 05:53:27;;;;;;;;;;;14.20;97.80;;;;;;5092474;28;19993;-70
2023/10/04 05:55:52;;;;;;;;;;;14.20;97.70;;;;;;5092731;28;19924;-70
2023/10/04 05:58:18;;;;;;;;;;;14.20;97.80;;;;;;5092559;28;20428;-70
2023/10/04 06:00:51;;;;;;;;;;;14.20;97.80;;;;;;5091481;28;19912;-70
2023/10/04 06:03:17;;;;;;;;;;;14.20;97.70;;;;;;5091066;28;20361;-70
2023/10/04 06:05:43;;;;;;;;;;;14.20;97.80;;;;;;5096937;28;19955;-70
2023/10/04 06:08:15;;;;;;;;;;;14.20;97.80;;;;;;5093840;28;19923;-70
2023/10/04 06:10:42;;;;;;;;;;;14.20;97.80;;;;;;5095908;28;20425;-70
2023/10/04 06:13:11;;;;;;;;;;;14.10;97.80;;;;;;5092452;28;20006;-70
2023/10/04 06:15:40;;;;;;;;;;;14.10;97.80;;;;;;5091786;28;19912;-70
2023/10/04 06:18:07;;;;;;;;;;;14.10;97.80;;;;;;5092385;28;20431;-70
2023/10/04 06:20:36;;;;;;;;;;;14.10;97.80;;;;;;5093621;28;20430;-70
2023/10/04 06:23:09;;;;;;;;;;;14.10;97.70;;;;;;5093903;28;20003;-70
2023/10/04 06:25:38;;;;;;;;;;;14.10;97.80;;;;;;5091661;28;19969;-70
2023/10/04 06:28:04;;;;;;;;;;;14.10;97.80;;;;;;5092297;28;19915;-70
2023/10/04 06:30:31;;;;;;;;;;;14.10;97.70;;;;;;5097214;28;19918;-70
2023/10/04 06:32:57;;;;;;;;;;;14.10;97.80;;;;;;5098284;28;19911;-70
2023/10/04 06:35:23;;;;;;;;;;;14.10;97.70;;;;;;5090810;28;19919;-70
2023/10/04 06:37:53;;;;;;;;;;;14.10;97.70;;;;;;5090374;28;19909;-70
2023/10/04 06:40:19;;;;;;;;;;;14.10;97.80;;;;;;5094057;28;19912;-70
2023/10/04 06:42:45;;;;;;;;;;;14.10;97.80;;;;;;5088082;28;20326;-70
2023/10/04 06:45:17;;;;;;;;;;;14.10;97.70;;;;;;5090611;28;19908;-70
2023/10/04 06:47:44;;;;;;;;;;;14.10;97.80;;;;;;5094284;28;20295;-70
2023/10/04 06:50:13;;;;;;;;;;;14.10;97.70;;;;;;5094565;28;19969;-70
2023/10/04 06:52:40;;;;;;;;;;;14.10;97.70;;;;;;5089216;28;20523;-70
2023/10/04 06:55:08;;;;;;;;;;;14.10;97.70;;;;;;5087584;28;19916;-70
2023/10/04 06:57:35;;;;;;;;;;;14.10;97.70;;;;;;5089316;28;19916;-70
2023/10/04 07:00:01;;;;;;;;;;;14.10;97.70;;;;;;5091711;28;19952;-70
2023/10/04 07:02:26;;;;;;;;;;;14.10;97.70;;;;;;5100408;28;19954;-70
2023/10/04 07:04:52;;;;;;;;;;;14.10;97.70;;;;;;5095931;28;20287;-70
2023/10/04 07:07:18;;;;;;;;;;;14.10;97.80;;;;;;5091003;28;20352;-70
2023/10/04 07:09:43;;;;;;;;;;;14.20;97.70;;;;;;5090750;28;19922;-70
2023/10/04 07:12:09;;;;;;;;;;;14.20;97.70;;;;;;5098542;28;19936;-70
2023/10/04 07:14:34;;;;;;;;;;;14.20;97.70;;;;;;5089917;28;20282;-70
2023/10/04 07:17:00;;;;;;;;;;;14.20;97.70;;;;;;5090802;28;20280;-70
2023/10/04 07:19:28;;;;;;;;;;;14.20;97.70;;;;;;5081822;28;19916;-70
2023/10/04 07:21:55;;;;;;;;;;;14.20;97.70;;;;;;5100149;28;19908;-70
2023/10/04 07:24:20;;;;;;;;;;;14.20;97.60;;;;;;5089909;28;19912;-70
2023/10/04 07:26:46;;;;;;;;;;;14.20;97.70;;;;;;5090334;28;19923;-70
2023/10/04 07:29:11;;;;;;;;;;;14.20;97.60;;;;;;5090373;28;19914;-70
2023/10/04 07:31:37;;;;;;;;;;;14.20;97.60;;;;;;5089628;28;19995;-70
2023/10/04 07:34:03;;;;;;;;;;;14.20;97.60;;;;;;5089972;28;19958;-70
2023/10/04 07:36:28;;;;;;;;;;;14.20;97.90;;;;;;5089880;28;19913;-70
2023/10/04 07:38:54;;;;;;;;;;;14.30;97.60;;;;;;5090149;28;19912;-70
2023/10/04 07:41:20;;;;;;;;;;;14.30;97.60;;;;;;5090703;28;19908;-71
2023/10/04 07:43:46;;;;;;;;;;;14.30;97.60;;;;;;5090650;27;20332;-71
2023/10/04 07:46:12;;;;;;;;;;;14.30;97.50;;;;;;5089369;28;19908;-70
2023/10/04 07:48:37;;;;;;;;;;;14.30;97.50;;;;;;5089383;28;20037;-70
2023/10/04 07:51:03;;;;;;;;;;;14.30;97.60;;;;;;5088041;28;19912;-70
2023/10/04 07:53:29;;;;;;;;;;;14.30;97.60;;;;;;5088800;28;19916;-70
2023/10/04 07:55:54;;;;;;;;;;;14.30;97.70;;;;;;5089020;28;19909;-70
2023/10/04 07:58:20;;;;;;;;;;;14.30;97.60;;;;;;5096358;28;19908;-70
2023/10/04 08:00:45;;;;;;;;;;;14.30;97.60;;;;;;5084729;28;19915;-70
2023/10/04 08:03:11;;;;;;;;;;;14.40;97.60;;;;;;5089072;28;19915;-70
2023/10/04 08:05:39;;;;;;;;;;;14.40;97.50;;;;;;5092881;28;19912;-70
2023/10/04 08:08:05;;;;;;;;;;;14.30;97.60;;;;;;5089080;28;20408;-70
2023/10/04 08:10:31;;;;;;;;;;;14.40;97.50;;;;;;5083184;28;19944;-70
2023/10/04 08:12:59;;;;;;;;;;;14.40;97.50;;;;;;5095369;28;20507;-70
2023/10/04 08:15:26;;;;;;;;;;;14.40;97.50;;;;;;5107561;28;19916;-70
2023/10/04 08:17:52;;;;;;;;;;;14.50;97.50;;;;;;5089345;28;20002;-70
2023/10/04 08:20:19;;;;;;;;;;;14.40;97.50;;;;;;5105839;28;19990;-70
2023/10/04 08:22:45;;;;;;;;;;;14.50;97.50;;;;;;5101434;28;19927;-70
2023/10/04 08:25:12;;;;;;;;;;;14.50;97.50;;;;;;5095861;28;19915;-70
2023/10/04 08:27:39;;;;;;;;;;;14.50;97.40;;;;;;5106679;28;20014;-70
2023/10/04 08:30:08;;;;;;;;;;;14.60;97.40;;;;;;5090335;28;19969;-70
2023/10/04 08:32:33;;;;;;;;;;;14.60;97.40;;;;;;5093047;28;20248;-70
2023/10/04 08:34:59;;;;;;;;;;;14.60;97.30;;;;;;5091411;28;20003;-70
2023/10/04 08:37:26;;;;;;;;;;;14.60;97.30;;;;;;5089587;28;19916;-70
2023/10/04 08:39:52;;;;;;;;;;;14.60;97.40;;;;;;5091334;28;19909;-70
2023/10/04 08:42:18;;;;;;;;;;;14.70;97.30;;;;;;5089550;28;19923;-70
2023/10/04 08:44:45;;;;;;;;;;;14.70;97.30;;;;;;5090733;28;19969;-70
2023/10/04 08:47:10;;;;;;;;;;;14.70;97.30;;;;;;5094696;28;19923;-70
2023/10/04 08:49:43;;;;;;;;;;;14.70;97.30;;;;;;5093898;28;19912;-70
2023/10/04 08:52:13;;;;;;;;;;;14.80;97.20;;;;;;5099621;28;19912;-70
2023/10/04 08:54:39;;;;;;;;;;;14.80;97.20;;;;;;5091289;28;19919;-70
2023/10/04 08:57:08;;;;;;;;;;;14.80;97.40;;;;;;5100577;28;19912;-70
2023/10/04 08:59:34;;;;;;;;;;;14.80;97.40;;;;;;5090818;28;20310;-70
2023/10/04 09:02:01;;;;;;;;;;;14.80;97.30;;;;;;5095950;28;19964;-70
2023/10/04 09:04:27;;;;;;;;;;;14.80;97.20;;;;;;5083116;28;20395;-70
2023/10/04 09:06:53;;;;;;;;;;;14.80;97.30;;;;;;5087559;28;19915;-70
2023/10/04 09:09:19;;;;;;;;;;;14.80;97.30;;;;;;5092094;28;20340;-70
2023/10/04 09:11:45;;;;;;;;;;;14.90;97.10;;;;;;5080581;28;19965;-70
2023/10/04 09:14:17;;;;;;;;;;;14.90;97.20;;;;;;5116859;27;19912;-70
2023/10/04 09:16:43;;;;;;;;;;;14.90;97.30;;;;;;5083400;28;19918;-70
2023/10/04 09:19:14;;;;;;;;;;;14.90;97.10;;;;;;5098912;28;20635;-70
2023/10/04 09:21:41;;;;;;;;;;;15.00;97.00;;;;;;5087431;28;20303;-70
2023/10/04 09:24:08;;;;;;;;;;;15.00;97.20;;;;;;5095396;28;19943;-70
2023/10/04 09:26:36;;;;;;;;;;;15.10;97.20;;;;;;5107268;28;19920;-70
2023/10/04 09:29:01;;;;;;;;;;;15.00;97.10;;;;;;5106752;28;19911;-70
2023/10/04 09:31:27;;;;;;;;;;;15.10;97.00;;;;;;5096837;28;20688;-70
2023/10/04 09:33:56;;;;;;;;;;;15.10;97.00;;;;;;5097394;28;19912;-70
2023/10/04 09:36:30;;;;;;;;;;;15.10;97.20;;;;;;5099818;28;19912;-70
2023/10/04 09:39:04;;;;;;;;;;;15.10;97.00;;;;;;5098905;28;19908;-70
2023/10/04 09:41:37;;;;;;;;;;;15.20;97.00;;;;;;5093719;28;19978;-70
2023/10/04 09:44:08;;;;;;;;;;;15.20;97.00;;;;;;5105236;28;19959;-70
2023/10/04 09:46:48;;;;;;;;;;;15.30;96.90;;;;;;5097106;28;19914;-70
2023/10/04 09:49:14;;;;;;;;;;;15.30;96.80;;;;;;5105928;28;19951;-70
2023/10/04 09:51:45;;;;;;;;;;;15.40;96.70;;;;;;5106394;28;19988;-70
2023/10/04 09:54:10;;;;;;;;;;;15.40;96.70;;;;;;5104468;28;20360;-70
2023/10/04 09:56:40;;;;;;;;;;;15.40;96.60;;;;;;5095192;28;19909;-70
2023/10/04 09:59:07;;;;;;;;;;;15.50;96.90;;;;;;5095252;28;19916;-70
2023/10/04 10:01:33;;;;;;;;;;;15.50;96.60;;;;;;5095035;28;19945;-70
2023/10/04 10:04:08;;;;;;;;;;;15.50;96.50;;;;;;5092415;28;19912;-70
2023/10/04 10:06:39;;;;;;;;;;;15.60;96.50;;;;;;5089897;28;19912;-70
2023/10/04 10:09:11;;;;;;;;;;;15.60;96.50;;;;;;5097324;28;19959;-70
2023/10/04 10:11:36;;;;;;;;;;;15.70;96.40;;;;;;5087650;28;19977;-70
2023/10/04 10:14:03;;;;;;;;;;;15.70;96.40;;;;;;5092194;28;20591;-70
2023/10/04 10:16:30;;;;;;;;;;;15.80;96.70;;;;;;5088999;28;19912;-70
2023/10/04 10:18:57;;;;;;;;;;;15.80;96.50;;;;;;5092935;28;19911;-70
2023/10/04 10:21:42;;;;;;;;;;;15.80;96.30;;;;;;5090498;28;19924;-70
2023/10/04 10:24:14;;;;;;;;;;;15.80;96.30;;;;;;5106327;28;19916;-70
2023/10/04 10:26:39;;;;;;;;;;;15.90;96.30;;;;;;5091178;28;19919;-70
2023/10/04 10:29:05;;;;;;;;;;;15.90;96.20;;;;;;5091992;28;20466;-70
2023/10/04 10:31:31;;;;;;;;;;;16.00;96.20;;;;;;5092856;28;19912;-70
2023/10/04 10:33:56;;;;;;;;;;;16.00;96.20;;;;;;5110307;28;20340;-70
2023/10/04 10:36:23;;;;;;;;;;;16.00;96.20;;;;;;5094012;28;19912;-70
2023/10/04 10:38:49;;;;;;;;;;;16.00;96.20;;;;;;5091788;28;19947;-70
2023/10/04 10:41:27;;;;;;;;;;;16.10;96.20;;;;;;5099120;28;19912;-70
2023/10/04 10:44:33;;;;;;;;;;;16.10;96.20;;;;;;5097816;28;19956;-70
2023/10/04 10:47:02;;;;;;;;;;;16.10;96.10;;;;;;5085248;28;19916;-70
2023/10/04 10:49:37;;;;;;;;;;;16.20;96.00;;;;;;5092850;28;19989;-71
2023/10/04 10:52:03;;;;;;;;;;;16.20;96.00;;;;;;5111194;27;19911;-70
2023/10/04 10:54:28;;;;;;;;;;;16.20;96.00;;;;;;5100702;28;19911;-70
2023/10/04 10:56:54;;;;;;;;;;;16.30;95.90;;;;;;5095985;28;20360;-70
2023/10/04 10:59:19;;;;;;;;;;;16.30;95.80;;;;;;5098675;28;19912;-70
2023/10/04 11:01:45;;;;;;;;;;;16.30;95.90;;;;;;5091021;28;19912;-70
2023/10/04 11:04:11;;;;;;;;;;;16.30;95.90;;;;;;5116271;27;19913;-70
2023/10/04 11:06:38;;;;;;;;;;;16.40;95.90;;;;;;5105435;27;20415;-70
2023/10/04 11:09:05;;;;;;;;;;;16.40;95.60;;;;;;5095545;28;20010;-70
2023/10/04 11:11:30;;;;;;;;;;;16.40;95.80;;;;;;5103723;28;19908;-70
2023/10/04 11:13:59;;;;;;;;;;;16.50;95.70;;;;;;5095292;28;19908;-70
2023/10/04 11:16:29;;;;;;;;;;;16.50;95.60;;;;;;5099435;28;19916;-70
2023/10/04 11:18:54;;;;;;;;;;;16.50;95.50;;;;;;5102142;28;19911;-70
2023/10/04 11:21:20;;;;;;;;;;;16.60;95.70;;;;;;5093509;28;20368;-70
2023/10/04 11:23:48;;;;;;;;;;;16.60;95.50;;;;;;5102201;28;19980;-70
2023/10/04 11:26:13;;;;;;;;;;;16.60;95.50;;;;;;5094384;28;20288;-70
2023/10/04 11:28:39;;;;;;;;;;;16.70;95.60;;;;;;5093037;28;19915;-70
2023/10/04 11:31:04;;;;;;;;;;;16.80;95.50;;;;;;5110563;27;19911;-70
2023/10/04 11:33:30;;;;;;;;;;;16.80;95.30;;;;;;5097403;28;19951;-70
2023/10/04 11:35:57;;;;;;;;;;;16.80;95.30;;;;;;5092933;28;20677;-70
2023/10/04 11:38:24;;;;;;;;;;;16.90;95.20;;;;;;5093473;28;19912;-70
2023/10/04 11:40:50;;;;;;;;;;;17.00;95.20;;;;;;5110362;28;19933;-70
2023/10/04 11:43:16;;;;;;;;;;;17.00;95.20;;;;;;5110151;28;19931;-70
2023/10/04 11:45:41;;;;;;;;;;;17.00;95.10;;;;;;5103434;28;20383;-70
2023/10/04 11:48:10;;;;;;;;;;;17.10;95.10;;;;;;5110080;27;20296;-70
2023/10/04 11:50:47;;;;;;;;;;;17.10;95.00;;;;;;5099284;28;19919;-70
2023/10/04 11:53:13;;;;;;;;;;;17.10;95.10;;;;;;5094029;28;19916;-70
2023/10/04 11:55:39;;;;;;;;;;;17.10;95.10;;;;;;5097510;28;19964;-70
2023/10/04 11:58:05;;;;;;;;;;;17.10;94.80;;;;;;5104728;28;19958;-70
2023/10/04 12:00:30;;;;;;;;;;;17.10;94.60;;;;;;5091103;28;19908;-70
2023/10/04 12:02:56;;;;;;;;;;;17.20;95.10;;;;;;5101628;28;19915;-70
2023/10/04 12:05:21;;;;;;;;;;;17.20;95.10;;;;;;5099371;28;19912;-71
2023/10/04 12:07:47;;;;;;;;;;;17.20;94.90;;;;;;5102280;28;20561;-71
2023/10/04 12:10:13;;;;;;;;;;;17.20;94.70;;;;;;5089128;28;19912;-70
2023/10/04 12:12:39;;;;;;;;;;;17.20;94.90;;;;;;5105166;28;19911;-70
2023/10/04 12:15:08;;;;;;;;;;;17.20;94.70;;;;;;5098013;28;19912;-70
2023/10/04 12:17:36;;;;;;;;;;;17.30;94.90;;;;;;5108278;28;19912;-70
2023/10/04 12:20:04;;;;;;;;;;;17.30;94.70;;;;;;5109636;28;19957;-70
2023/10/04 12:22:30;;;;;;;;;;;17.40;94.40;;;;;;5107599;28;19915;-70
2023/10/04 12:24:56;;;;;;;;;;;17.40;94.80;;;;;;5102457;28;19908;-70
2023/10/04 12:27:24;;;;;;;;;;;17.30;94.70;;;;;;5099375;28;19916;-70
2023/10/04 12:29:50;;;;;;;;;;;17.40;94.90;;;;;;5101613;28;19908;-70
2023/10/04 12:32:18;;;;;;;;;;;17.40;94.80;;;;;;5101187;28;19915;-70
2023/10/04 12:34:45;;;;;;;;;;;17.40;94.30;;;;;;5098614;28;19918;-70
2023/10/04 12:37:10;;;;;;;;;;;17.40;94.50;;;;;;5100625;28;19912;-70
2023/10/04 12:39:38;;;;;;;;;;;17.50;94.70;;;;;;5097441;28;19912;-70
2023/10/04 12:42:03;;;;;;;;;;;17.50;94.30;;;;;;5094734;28;20010;-70
2023/10/04 12:44:29;;;;;;;;;;;17.60;94.60;;;;;;5104530;28;20061;-70
2023/10/04 12:46:56;;;;;;;;;;;17.60;94.70;;;;;;5108324;28;19952;-70
2023/10/04 12:49:23;;;;;;;;;;;17.70;94.70;;;;;;5099844;28;19968;-70
2023/10/04 12:51:49;;;;;;;;;;;17.60;94.50;;;;;;5101191;28;19947;-70
2023/10/04 12:54:16;;;;;;;;;;;17.60;94.50;;;;;;5099697;28;20016;-70
2023/10/04 12:56:42;;;;;;;;;;;17.70;94.60;;;;;;5107806;28;19943;-70
2023/10/04 12:59:07;;;;;;;;;;;17.60;94.50;;;;;;5108866;28;19954;-70
2023/10/04 13:01:33;;;;;;;;;;;17.70;94.50;;;;;;5090088;28;19975;-70
2023/10/04 13:04:01;;;;;;;;;;;17.70;94.30;;;;;;5095241;28;19912;-70
2023/10/04 13:06:27;;;;;;;;;;;17.70;94.50;;;;;;5097559;28;19908;-70
2023/10/04 13:08:54;;;;;;;;;;;17.70;94.40;;;;;;5092270;28;19920;-70
2023/10/04 13:11:20;;;;;;;;;;;17.70;94.50;;;;;;5089654;28;20417;-71
2023/10/04 13:13:45;;;;;;;;;;;17.70;94.40;;;;;;5092240;28;20013;-70
2023/10/04 13:16:11;;;;;;;;;;;17.80;94.50;;;;;;5099992;28;19999;-70
2023/10/04 13:18:37;;;;;;;;;;;17.80;94.20;;;;;;5097278;28;19908;-70
2023/10/04 13:21:03;;;;;;;;;;;17.80;94.10;;;;;;5096949;28;19919;-70
2023/10/04 13:23:28;;;;;;;;;;;17.80;94.40;;;;;;5088414;28;19963;-70
2023/10/04 13:25:55;;;;;;;;;;;17.90;94.20;;;;;;5101635;28;19992;-70
2023/10/04 13:28:23;;;;;;;;;;;17.90;94.20;;;;;;5100655;28;19919;-71
2023/10/04 13:30:49;;;;;;;;;;;17.90;93.90;;;;;;5109111;28;19912;-71
2023/10/04 13:33:15;;;;;;;;;;;17.90;94.10;;;;;;5091775;28;19915;-71
2023/10/04 13:35:41;;;;;;;;;;;17.90;94.20;;;;;;5087248;28;19923;-71
2023/10/04 13:38:07;;;;;;;;;;;17.90;94.10;;;;;;5087625;28;19995;-71
2023/10/04 13:40:35;;;;;;;;;;;17.90;94.00;;;;;;5088321;28;20010;-71
2023/10/04 13:43:02;;;;;;;;;;;17.90;94.10;;;;;;5088896;28;19908;-71
2023/10/04 13:45:28;;;;;;;;;;;17.90;93.90;;;;;;5096869;28;20276;-71
2023/10/04 13:47:54;;;;;;;;;;;18.00;93.60;;;;;;5089034;28;20014;-71
2023/10/04 13:50:24;;;;;;;;;;;17.90;93.60;;;;;;5096268;28;19912;-71
2023/10/04 13:52:50;;;;;;;;;;;17.90;93.90;;;;;;5091894;28;20309;-71
2023/10/04 13:55:16;;;;;;;;;;;17.90;94.10;;;;;;5103134;28;19912;-70
2023/10/04 13:57:42;;;;;;;;;;;17.90;93.40;;;;;;5088688;28;19977;-71
2023/10/04 14:00:22;;;;;;;;;;;17.80;93.70;;;;;;5090389;28;19997;-71
2023/10/04 14:02:47;;;;;;;;;;;17.90;94.20;;;;;;5094582;28;19911;-71
2023/10/04 14:05:18;;;;;;;;;;;17.90;94.20;;;;;;5102050;28;20347;-71
2023/10/04 14:07:53;;;;;;;;;;;17.90;94.40;;;;;;5103173;28;19922;-71
2023/10/04 14:10:23;;;;;;;;;;;17.80;93.20;;;;;;5090604;28;19954;-71
2023/10/04 14:12:58;;;;;;;;;;;17.80;94.00;;;;;;5084466;28;20352;-71
2023/10/04 14:15:27;;;;;;;;;;;17.90;94.10;;;;;;5092376;28;19966;-71